Latest Weather Observations for West Wyalong

IDN60801

Issued at 8:02 pm EST Friday 28 April 2017 (issued every 30 minutes, with the page automatically refreshed every 10 minutes)

About weather observations | Map of weather stations | Latest weather observations for NSW | Other Formats
Station Details ID: 050017 Name: WEST WYALONG AIRPORT AWS Lat: -33.94 Lon: 147.20 Height: 257.0 m
Data from the previous 72 hours. | See also: Recent months at West Wyalong
Date/Time
EST
Temp
°C
App
Temp
°C
Dew
Point
°C
Rel
Hum
%
Delta-T
°C
Wind Press
QNH
hPa
Press
MSL
hPa
Rain since
9am
mm
Dir  Spd
km/h
Gust
km/h
Spd
kts
Gust
kts
28/08:00pm 10.6 8.1 6.6 76 1.9 SW 9 9 5 5 1024.3 1023.9 0.0
28/07:30pm 11.0 8.9 6.6 74 2.1 SSW 7 9 4 5 1024.3 1023.9 0.0
28/07:00pm 12.0 9.5 6.5 69 2.6 SSW 9 11 5 6 1024.4 1024.0 0.0
28/06:30pm 12.7 9.4 6.3 65 3.1 SSW 13 19 7 10 1024.2 1023.8 0.0
28/06:00pm 13.4 10.1 6.5 63 3.3 SSW 13 19 7 10 1024.0 1023.6 0.0
28/05:30pm 13.6 9.5 6.2 61 3.6 SSW 17 24 9 13 1023.9 1023.5 0.0
28/05:00pm 14.2 9.6 6.6 60 3.7 SSW 20 26 11 14 1023.7 1023.2 0.0
28/04:30pm 14.3 9.6 6.2 58 3.9 SW 20 26 11 14 1023.6 1023.1 0.0
28/04:00pm 14.7 10.4 6.8 59 3.9 SSW 19 26 10 14 1023.5 1023.0 0.0
28/03:30pm 15.8 11.2 6.5 54 4.6 SSW 20 28 11 15 1023.4 1022.9 0.0
28/03:00pm 15.9 11.2 6.1 52 4.8 SSW 20 28 11 15 1023.5 1023.0 0.0
28/02:30pm 16.7 12.2 5.9 49 5.3 SSW 19 26 10 14 1023.4 1022.9 0.0
28/02:00pm 16.5 11.9 5.5 48 5.3 SW 19 26 10 14 1023.5 1023.0 0.0
28/01:30pm 15.6 11.2 4.9 49 5.1 SSW 17 24 9 13 1023.5 1023.0 0.0
28/01:00pm 15.8 11.3 4.2 46 5.4 SSW 17 30 9 16 1023.8 1023.3 0.0
28/12:30pm 15.4 11.7 4.5 48 5.2 SW 13 22 7 12 1024.3 1023.9 0.0
28/12:00pm 14.8 9.7 4.2 49 4.9 SSW 20 28 11 15 1024.9 1024.5 0.0
28/11:30am 14.4 9.3 3.2 47 5.1 S 19 24 10 13 1025.2 1024.7 0.0
28/11:00am 14.1 9.7 2.7 46 5.1 S 15 26 8 14 1025.4 1024.9 0.0
28/10:30am 13.2 8.7 2.4 48 4.8 S 15 20 8 11 1025.5 1025.0 0.0
28/10:00am 12.7 8.7 4.9 59 3.6 SSW 15 20 8 11 1025.5 1025.0 0.0
28/09:30am 11.2 7.7 5.3 67 2.7 SSW 13 17 7 9 1025.5 1025.0 0.0
28/09:00am 9.2 5.9 6.3 82 1.4 SW 13 17 7 9 1025.5 1025.0 0.0
28/08:30am 7.9 4.6 6.4 90 0.7 SW 13 17 7 9 1025.3 1024.8 0.0
28/08:00am 6.5 3.4 5.5 93 0.4 SW 11 15 6 8 1024.9 1024.5 0.0
28/07:30am 5.5 1.9 4.8 95 0.3 WSW 13 15 7 8 1024.2 1023.8 0.0
28/07:00am 4.5 0.7 3.9 96 0.3 WSW 13 15 7 8 1024.1 1023.7 0.0
28/06:30am 4.5 1.1 3.9 96 0.3 SW 11 15 6 8 1023.8 1023.3 0.0
28/06:00am 4.5 1.1 3.8 95 0.3 WSW 11 13 6 7 1023.6 1023.1 0.0
28/05:30am 4.6 1.2 3.9 95 0.3 WSW 11 13 6 7 1023.5 1023.0 0.0
28/05:00am 4.7 1.3 3.8 94 0.4 SW 11 15 6 8 1023.2 1022.7 0.0
28/04:30am 5.0 1.6 4.1 94 0.4 WSW 11 15 6 8 1023.0 1022.5 0.0
28/04:00am 5.2 1.5 4.2 93 0.4 SW 13 15 7 8 1022.8 1022.3 0.0
28/03:30am 5.7 2.0 4.5 92 0.5 WSW 13 15 7 8 1022.6 1022.1 0.0
28/03:00am 5.6 1.5 4.4 92 0.5 SW 15 17 8 9 1022.5 1022.0 0.0
28/02:30am 5.7 1.6 4.5 92 0.5 SW 15 17 8 9 1022.5 1022.0 0.0
28/02:00am 6.0 1.9 4.5 90 0.7 SW 15 17 8 9 1022.5 1022.0 0.0
28/01:30am 6.1 1.6 4.4 89 0.7 SW 17 19 9 10 1022.6 1022.1 0.0
28/01:00am 6.3 2.2 4.6 89 0.7 SW 15 19 8 10 1022.6 1022.1 0.0
28/12:30am 6.6 3.3 4.6 87 0.9 WSW 11 13 6 7 1022.5 1022.0 0.0
28/12:00am 6.8 3.1 4.6 86 1.0 SW 13 17 7 9 1022.7 1022.2 0.0
 
Date/Time
EST
Temp
°C
App
Temp
°C
Dew
Point
°C
Rel
Hum
%
Delta-T
°C
Wind Press
QNH
hPa
Press
MSL
hPa
Rain since
9am
mm
Dir  Spd
km/h
Gust
km/h
Spd
kts
Gust
kts
27/11:30pm 7.2 3.5 4.5 83 1.2 SW 13 17 7 9 1022.7 1022.2 0.0
27/11:00pm 8.0 3.6 4.8 80 1.4 SW 17 22 9 12 1022.7 1022.2 0.0
27/10:30pm 7.7 3.3 4.8 82 1.3 SW 17 20 9 11 1022.8 1022.3 0.0
27/10:00pm 7.8 3.4 4.9 82 1.3 SW 17 20 9 11 1022.7 1022.2 0.0
27/09:30pm 8.1 4.1 4.9 80 1.4 WSW 15 19 8 10 1022.7 1022.2 0.0
27/09:00pm 8.1 4.4 4.7 79 1.5 WSW 13 17 7 9 1022.7 1022.2 0.0
27/08:30pm 8.4 5.1 4.4 76 1.8 WSW 11 15 6 8 1022.4 1021.9 0.0
27/08:00pm 8.8 5.5 4.4 74 2.0 SW 11 15 6 8 1022.0 1021.5 0.0
27/07:30pm 9.0 5.6 4.0 71 2.2 SW 11 13 6 7 1021.8 1021.3 0.0
27/07:00pm 9.3 6.3 4.1 70 2.3 SW 9 13 5 7 1021.9 1021.4 0.0
27/06:30pm 10.4 7.0 4.1 65 2.8 S 11 13 6 7 1021.7 1021.2 0.0
27/06:00pm 11.2 7.8 4.2 62 3.2 SSW 11 17 6 9 1020.9 1020.5 0.0
27/05:30pm 11.9 7.4 4.2 59 3.5 SSW 17 24 9 13 1020.6 1020.2 0.0
27/05:00pm 13.2 6.9 3.8 53 4.3 SW 26 41 14 22 1020.4 1019.9 0.0
27/04:30pm 13.6 7.3 3.9 52 4.5 SW 26 35 14 19 1020.0 1019.5 0.0
27/04:00pm 14.0 8.0 3.5 49 4.8 SW 24 32 13 17 1019.8 1019.3 0.0
27/03:30pm 14.4 8.5 4.1 50 4.8 SSW 24 32 13 17 1019.7 1019.2 0.0
27/03:00pm 13.9 7.2 3.9 51 4.6 SSW 28 37 15 20 1019.4 1018.9 0.0
27/02:30pm 14.0 8.1 3.8 50 4.7 SSW 24 35 13 19 1019.4 1018.9 0.0
27/02:00pm 14.0 8.2 4.3 52 4.5 SSW 24 35 13 19 1019.3 1018.8 0.0
27/01:30pm 13.7 7.8 4.0 52 4.5 SSW 24 33 13 18 1019.4 1018.9 0.0
27/01:00pm 13.5 7.2 3.8 52 4.4 SSW 26 37 14 20 1019.5 1019.0 0.0
27/12:30pm 13.5 7.2 3.8 52 4.5 SSW 26 35 14 19 1020.0 1019.5 0.0
27/12:00pm 12.2 5.1 3.4 55 3.9 SSW 30 39 16 21 1020.4 1019.9 0.0
27/11:30am 11.7 4.6 3.7 58 3.6 SW 30 39 16 21 1020.6 1020.2 0.0
27/11:00am 11.4 4.5 4.6 63 3.1 SSW 30 39 16 21 1020.7 1020.3 0.0
27/10:30am 10.7 4.4 3.7 62 3.1 SSW 26 35 14 19 1020.7 1020.3 0.0
27/10:00am 10.0 3.8 4.4 68 2.5 SW 26 35 14 19 1020.7 1020.3 0.0
27/09:30am 8.9 2.7 4.3 73 2.1 SW 26 33 14 18 1020.8 1020.4 0.0
27/09:00am 7.8 0.7 3.8 76 1.7 SW 30 39 16 21 1020.8 1020.4 3.8
27/08:30am 7.3 1.1 4.3 81 1.3 SW 26 37 14 20 1020.4 1019.9 3.8
27/08:00am 6.1 1.2 3.9 86 0.9 WSW 19 24 10 13 1019.8 1019.3 3.8
27/07:30am 5.5 1.7 3.7 88 0.8 SW 13 17 7 9 1019.5 1019.0 3.8
27/07:00am 4.9 0.2 3.2 89 0.7 SW 17 24 9 13 1019.2 1018.7 3.8
27/06:30am 5.1 0.4 3.3 88 0.8 SW 17 24 9 13 1018.9 1018.4 3.8
27/06:00am 5.4 0.2 3.4 87 0.8 SW 20 28 11 15 1018.5 1018.0 3.8
27/05:30am 5.7 -0.3 3.4 85 1.0 SW 24 30 13 16 1018.1 1017.6 3.8
27/05:00am 5.9 0.7 3.4 84 1.1 SW 20 26 11 14 1017.8 1017.3 3.8
27/04:30am 6.3 1.1 3.5 82 1.2 SW 20 26 11 14 1017.5 1017.0 3.8
27/04:00am 6.7 1.1 3.3 79 1.4 SW 22 32 12 17 1017.3 1016.8 3.8
27/03:30am 7.2 0.8 3.4 77 1.6 SW 26 32 14 17 1017.2 1016.6 3.8
27/03:00am 7.4 1.4 3.5 76 1.7 SW 24 33 13 18 1017.2 1016.6 3.8
27/02:30am 7.4 1.0 3.3 75 1.8 SW 26 35 14 19 1017.1 1016.5 3.8
27/02:00am 7.8 1.4 3.3 73 1.9 SW 26 32 14 17 1017.2 1016.6 3.8
27/01:30am 8.0 1.2 3.1 71 2.1 SW 28 37 15 20 1016.8 1016.3 3.8
27/01:00am 7.9 1.5 3.0 71 2.1 SW 26 35 14 19 1016.9 1016.4 3.8
27/12:30am 7.8 3.1 2.9 71 2.1 SW 17 24 9 13 1017.1 1016.5 3.8
27/12:00am 7.7 2.0 2.6 70 2.2 SW 22 35 12 19 1016.9 1016.4 3.8
 
Date/Time
EST
Temp
°C
App
Temp
°C
Dew
Point
°C
Rel
Hum
%
Delta-T
°C
Wind Press
QNH
hPa
Press
MSL
hPa
Rain since
9am
mm
Dir  Spd
km/h
Gust
km/h
Spd
kts
Gust
kts
26/11:30pm 7.9 1.8 2.8 70 2.2 SW 24 33 13 18 1016.8 1016.3 3.8
26/11:00pm 8.1 2.8 2.8 69 2.3 SW 20 32 11 17 1016.6 1016.1 3.8
26/10:30pm 8.3 1.1 3.2 70 2.2 SW 30 43 16 23 1016.4 1015.9 3.8
26/10:00pm 8.7 1.1 2.7 66 2.6 SW 32 43 17 23 1016.2 1015.7 3.8
26/09:30pm 9.2 2.3 2.8 64 2.8 SW 28 43 15 23 1016.1 1015.6 3.8
26/09:00pm 9.5 2.3 3.0 64 2.8 SW 30 39 16 21 1015.9 1015.4 3.8
26/08:30pm 9.9 2.7 3.2 63 2.9 SW 30 44 16 24 1015.5 1015.0 3.8
26/08:00pm 10.5 2.9 3.8 63 3.0 SW 33 48 18 26 1015.1 1014.6 3.8
26/07:30pm 10.9 3.1 4.8 66 2.8 SW 35 50 19 27 1014.8 1014.3 3.8
26/07:00pm 11.2 3.9 4.7 64 3.0 SW 32 44 17 24 1014.2 1013.7 3.8
26/06:30pm 11.8 3.6 4.8 62 3.2 SW 37 50 20 27 1013.7 1013.1 3.8
26/06:19pm 12.0 5.6 5.4 64 3.1 SW 28 54 15 29 1013.5 1012.9 3.8
26/06:00pm 11.7 5.4 5.8 67 2.8 SW 28 37 15 20 1013.0 1012.4 3.8
26/05:47pm 12.1 5.0 5.5 64 3.1 SW 32 50 17 27 1012.6 1012.1 3.8
26/05:30pm 12.4 5.4 5.8 64 3.1 SW 32 46 17 25 1012.3 1011.8 3.8
26/05:00pm 12.8 5.4 6.8 67 2.9 SW 35 48 19 26 1011.7 1011.2 3.8
26/04:30pm 13.4 6.6 7.8 69 2.8 SW 33 46 18 25 1011.2 1010.7 3.8
26/04:00pm 13.6 6.2 8.2 70 2.7 SW 37 46 20 25 1010.9 1010.4 3.8
26/03:30pm 12.3 6.2 8.4 77 2.0 WSW 30 41 16 22 1010.6 1010.1 3.8
26/03:00pm 11.5 5.8 8.2 80 1.6 WSW 28 39 15 21 1010.2 1009.6 3.8
26/02:30pm 10.8 6.6 8.4 85 1.2 WSW 20 28 11 15 1009.7 1009.1 3.6
26/02:02pm 12.4 6.6 7.9 74 2.2 WSW 28 50 15 27 1009.4 1008.8 3.4
26/02:00pm 13.1 7.9 9.0 76 2.1 WSW 26 39 14 21 1009.4 1008.8 3.4
26/01:34pm 12.6 6.8 9.4 81 1.6 WSW 30 50 16 27 1009.3 1008.7 3.4
26/01:30pm 12.2 7.1 9.2 82 1.5 WSW 26 35 14 19 1009.2 1008.6 3.4
26/01:00pm 12.1 6.0 9.7 85 1.2 WSW 32 44 17 24 1009.1 1008.5 2.4
26/12:30pm 13.0 8.5 10.2 83 1.5 WSW 24 35 13 19 1009.1 1008.5 1.8
26/12:00pm 10.8 5.2 8.7 87 1.1 WSW 28 35 15 19 1009.3 1008.7 1.8
26/11:30am 10.2 4.6 8.6 90 0.8 WSW 28 39 15 21 1009.4 1008.8 1.8
26/11:00am 10.1 5.6 8.5 90 0.8 WSW 22 30 12 16 1009.2 1008.6 1.6
26/10:30am 10.3 3.7 8.4 88 0.9 WSW 33 46 18 25 1009.5 1008.9 1.2
26/10:00am 10.1 3.6 9.0 93 0.6 WSW 33 46 18 25 1009.5 1008.9 1.0
26/09:41am 11.7 6.3 9.6 87 1.1 WSW 28 56 15 30 1009.5 1008.9 0.8
26/09:30am 12.3 7.4 11.2 93 0.6 WSW 28 43 15 23 1008.9 1008.3 0.6
26/09:00am 13.3 9.1 11.0 86 1.2 W 24 32 13 17 1008.7 1008.2 4.6
26/08:30am 13.5 10.2 11.6 88 1.0 WNW 20 28 11 15 1008.5 1008.0 4.6
26/08:00am 13.2 10.4 11.4 89 1.0 NW 17 24 9 13 1008.4 1007.9 4.6
26/07:30am 12.6 10.2 11.5 93 0.6 NW 15 24 8 13 1008.5 1008.0 4.6
26/07:00am 12.3 10.7 11.4 94 0.5 WNW 11 15 6 8 1008.3 1007.8 4.6
26/06:30am 12.3 9.5 11.2 93 0.6 WSW 17 22 9 12 1008.4 1007.9 4.6
26/06:00am 12.7 9.1 10.6 87 1.1 WNW 20 28 11 15 1008.7 1008.2 4.0
26/05:30am 11.9 9.2 10.5 91 0.7 NW 15 20 8 11 1008.4 1007.9 4.0
26/05:00am 11.7 9.3 10.1 90 0.8 NNW 13 17 7 9 1008.0 1007.5 4.0
26/04:30am 12.4 9.8 10.6 89 0.9 NW 15 20 8 11 1008.6 1008.1 4.0
26/04:00am 12.7 10.1 10.8 88 1.0 NW 15 20 8 11 1008.9 1008.3 4.0
26/03:30am 12.7 10.6 11.1 90 0.9 NW 13 15 7 8 1009.1 1008.5 4.0
26/03:00am 13.4 11.5 11.8 90 0.9 NW 13 17 7 9 1009.4 1008.8 4.0
26/02:30am 13.6 11.7 11.8 89 1.0 WNW 13 17 7 9 1009.6 1009.0 4.0
26/02:00am 13.5 11.6 11.7 89 1.0 NW 13 17 7 9 1009.7 1009.1 4.0
26/01:30am 12.9 11.7 11.6 92 0.7 NNW 9 13 5 7 1009.9 1009.3 4.0
26/01:00am 13.1 12.3 11.7 91 0.8 NW 7 9 4 5 1009.9 1009.3 4.0
26/12:30am 13.4 11.9 12.0 91 0.8 NW 11 13 6 7 1010.1 1009.5 4.0
26/12:00am 13.7 12.2 11.9 89 1.0 WNW 11 13 6 7 1010.4 1009.8 4.0
 
Date/Time
EST
Temp
°C
App
Temp
°C
Dew
Point
°C
Rel
Hum
%
Delta-T
°C
Wind Press
QNH
hPa
Press
MSL
hPa
Rain since
9am
mm
Dir  Spd
km/h
Gust
km/h
Spd
kts
Gust
kts
25/11:30pm 14.1 12.6 12.0 87 1.1 WNW 11 15 6 8 1010.4 1009.8 4.0
25/11:00pm 14.6 12.9 12.3 86 1.3 NW 13 17 7 9 1010.5 1009.9 4.0
25/10:30pm 15.0 13.3 12.5 85 1.4 NW 13 17 7 9 1010.6 1010.1 4.0
25/10:00pm 15.5 13.5 12.8 84 1.5 WNW 15 20 8 11 1010.7 1010.2 4.0
25/09:30pm 15.6 14.1 13.1 85 1.4 NW 13 15 7 8 1010.6 1010.1 4.0
25/09:00pm 15.5 14.5 13.3 87 1.2 NW 11 13 6 7 1010.5 1009.9 4.0
25/08:30pm 15.4 14.8 13.4 88 1.1 NW 9 11 5 6 1010.7 1010.2 4.0

Other Formats:

Comma delimited format used in spreadsheet applications
http://www.bom.gov.au/fwo/IDN60801/IDN60801.95709.axf

JavaScript Object Notation format (JSON) in row-major order
http://www.bom.gov.au/fwo/IDN60801/IDN60801.95709.json